Corea, ME (04624)

11:21 PM EST on February 11, 2016 (GMT -0500)
Sand Cove | | Change Station
CLOSE
Current Station
Personal Weather Station
Location: Gouldsboro, ME
Elevation: 62 ft
Nearby Weather Stations
Active Advisory: Winter Storm Watch Active Notice: Local Storm Report

Elev 62 ft 44.41 °N, 68.01 °W | Updated 8 seconds ago

Clear
Clear
11.3 °F
Feels Like 11 °F
N
0.0
Wind Variable Wind from East
Gusts 3.0 mph

Today
High -- | Low -- °F
--% Chance of Precip.
Yesterday
High -- | Low -- °F
Precip. -- in
Pressure 29.82 in
Visibility 10.0 miles
Clouds Clear
Windchill 11 °F
Dew Point 4 °F
Humidity 77%
Rainfall 0.04 in
Snow Depth Not available.
6:38 AM 4:54 PM
Waxing Crescent, 17% visible
METAR KBHB 120415Z 32006G16KT 10SM CLR M12/M17 A2982 RMK AO1
Pressure 29.82 in
Visibility 10.0 miles
Clouds Clear
Windchill 11 °F
Dew Point 4 °F
Humidity 77%
Rainfall 0.04 in
Snow Depth Not available.
6:38 AM 4:54 PM
Waxing Crescent, 17% visible
METAR KBHB 120415Z 32006G16KT 10SM CLR M12/M17 A2982 RMK AO1

10-Day Weather Forecast

Almanac

Astronomy

Feb. 11, 2016 Rise Set
Actual Time
Civil Twilight
Nautical Twilight
Astronomical Twilight
Moon
Length of Visible Light
Length of Day
Tomorrow will be .
, % of the Moon is Illuminated

Today's Extremes

State Highs State Lows

Community

WunderPhotos

Upload Photos

1,892,266 photos uploaded!

WunderBlog® & News

Nearby

Air Quality

  Air Quality AQ Index Pollutant
Not available.

Snow Depth

Station Depth Elevation

Earthquake Activity

City Distance Mag. Time & Date
Minimum magnitude displayed is 2.5.

Coastal Water Temperatures

Place Temperature

Stations

Nearby Weather Stations

Station Location Temp. Windchill Dew Point Humidity Wind Precip. Elev Updated Type
                   

Watches & Warnings

Winter Storm Watch
Issued: 10:40 PM EST Feb. 11, 2016 – National Weather Service

... Winter Storm Watch remains in effect from late Friday night
through late Saturday night...

* locations... Hancock and southern Penobscot County.

* Hazard types... snow and blowing snow.

* Accumulations... possible snow accumulation of 6 to 14 inches.
Totals will vary significantly over short distances.

* Timing... late Friday night to Saturday night.

* Impacts... moderate impact. Locally heavy snowfall and areas of
blowing snow will result in difficult driving conditions.

* Winds... northeast 10 to 20 mph with gusts up to 35 mph.

* Temperatures... 5 to 20 above.

* Visibilities... one half mile or less at times.

Precautionary/preparedness actions...

A Winter Storm Watch means there is a potential for significant
snow... sleet... or ice accumulations that may impact travel.
Continue to monitor the latest forecasts.



Norcross